sensor_id;sensor_type;location;lat;lon;timestamp;pressure;altitude;pressure_sealevel;temperature;humidity
33496;BME280;19836;55.812;37.560;2024-01-27T00:01:36;99489.16;;;-0.19;68.77
33496;BME280;19836;55.812;37.560;2024-01-27T00:04:04;99486.66;;;-0.04;68.81
33496;BME280;19836;55.812;37.560;2024-01-27T00:06:30;99485.81;;;0.03;68.75
33496;BME280;19836;55.812;37.560;2024-01-27T00:08:56;99479.59;;;-0.07;68.83
33496;BME280;19836;55.812;37.560;2024-01-27T00:11:22;99482.19;;;-0.11;68.93
33496;BME280;19836;55.812;37.560;2024-01-27T00:13:52;99477.84;;;-0.09;68.69
33496;BME280;19836;55.812;37.560;2024-01-27T00:16:23;99484.78;;;-0.17;68.48
33496;BME280;19836;55.812;37.560;2024-01-27T00:18:49;99487.44;;;-0.14;69.05
33496;BME280;19836;55.812;37.560;2024-01-27T00:21:15;99492.75;;;-0.07;68.46
33496;BME280;19836;55.812;37.560;2024-01-27T00:23:42;99492.72;;;-0.11;68.47
33496;BME280;19836;55.812;37.560;2024-01-27T00:26:08;99484.81;;;-0.14;68.79
33496;BME280;19836;55.812;37.560;2024-01-27T00:28:37;99489.91;;;-0.32;68.46
33496;BME280;19836;55.812;37.560;2024-01-27T00:31:12;99489.91;;;-0.35;69.03
33496;BME280;19836;55.812;37.560;2024-01-27T00:37:35;99493.41;;;-0.35;68.76
33496;BME280;19836;55.812;37.560;2024-01-27T00:44:42;99499.50;;;-0.37;68.69
33496;BME280;19836;55.812;37.560;2024-01-27T00:47:44;99489.88;;;-0.37;68.91
33496;BME280;19836;55.812;37.560;2024-01-27T00:50:20;99505.50;;;-0.53;68.78
33496;BME280;19836;55.812;37.560;2024-01-27T00:52:51;99504.63;;;-0.54;69.59
33496;BME280;19836;55.812;37.560;2024-01-27T00:56:10;99496.88;;;-0.40;69.24
33496;BME280;19836;55.812;37.560;2024-01-27T00:58:39;99492.59;;;-0.26;69.20
33496;BME280;19836;55.812;37.560;2024-01-27T01:01:05;99503.22;;;-0.16;68.72
33496;BME280;19836;55.812;37.560;2024-01-27T01:03:32;99495.34;;;-0.14;69.18
33496;BME280;19836;55.812;37.560;2024-01-27T01:05:59;99502.41;;;-0.07;69.16
33496;BME280;19836;55.812;37.560;2024-01-27T01:08:25;99497.13;;;-0.10;68.62
33496;BME280;19836;55.812;37.560;2024-01-27T01:11:00;99496.97;;;-0.28;68.80
33496;BME280;19836;55.812;37.560;2024-01-27T01:13:26;99496.00;;;-0.39;69.00
33496;BME280;19836;55.812;37.560;2024-01-27T01:15:52;99505.59;;;-0.44;69.30
33496;BME280;19836;55.812;37.560;2024-01-27T01:18:18;99503.06;;;-0.35;69.34
33496;BME280;19836;55.812;37.560;2024-01-27T01:20:44;99506.59;;;-0.32;69.02
33496;BME280;19836;55.812;37.560;2024-01-27T01:23:10;99503.13;;;-0.25;69.37
33496;BME280;19836;55.812;37.560;2024-01-27T01:25:37;99497.97;;;-0.16;69.22
33496;BME280;19836;55.812;37.560;2024-01-27T01:28:03;99499.75;;;-0.09;69.22
33496;BME280;19836;55.812;37.560;2024-01-27T01:30:29;99502.41;;;-0.07;68.98
33496;BME280;19836;55.812;37.560;2024-01-27T01:32:55;99505.06;;;-0.06;69.09
33496;BME280;19836;55.812;37.560;2024-01-27T01:35:21;99499.78;;;-0.10;68.78
33496;BME280;19836;55.812;37.560;2024-01-27T01:37:47;99496.22;;;-0.15;68.71
33496;BME280;19836;55.812;37.560;2024-01-27T01:40:14;99504.06;;;-0.22;68.90
33496;BME280;19836;55.812;37.560;2024-01-27T01:42:41;99505.69;;;-0.32;69.05
33496;BME280;19836;55.812;37.560;2024-01-27T01:45:10;99494.31;;;-0.32;68.65
33496;BME280;19836;55.812;37.560;2024-01-27T01:47:41;99496.78;;;-0.46;68.82
33496;BME280;19836;55.812;37.560;2024-01-27T01:50:08;99509.91;;;-0.52;68.90
33496;BME280;19836;55.812;37.560;2024-01-27T01:52:35;99501.88;;;-0.66;68.77
33496;BME280;19836;55.812;37.560;2024-01-27T01:55:02;99507.13;;;-0.67;68.85
33496;BME280;19836;55.812;37.560;2024-01-27T01:57:29;99510.69;;;-0.62;69.04
33496;BME280;19836;55.812;37.560;2024-01-27T01:59:56;99513.38;;;-0.55;69.25
33496;BME280;19836;55.812;37.560;2024-01-27T02:02:22;99510.72;;;-0.56;68.83
33496;BME280;19836;55.812;37.560;2024-01-27T02:04:48;99509.88;;;-0.54;68.37
33496;BME280;19836;55.812;37.560;2024-01-27T02:07:15;99520.50;;;-0.43;68.99
33496;BME280;19836;55.812;37.560;2024-01-27T02:09:41;99515.41;;;-0.28;68.89
33496;BME280;19836;55.812;37.560;2024-01-27T02:12:07;99517.09;;;-0.35;68.84
33496;BME280;19836;55.812;37.560;2024-01-27T02:14:34;99524.13;;;-0.32;68.55
33496;BME280;19836;55.812;37.560;2024-01-27T02:17:00;99528.50;;;-0.31;68.62
33496;BME280;19836;55.812;37.560;2024-01-27T02:19:26;99525.13;;;-0.18;68.48
33496;BME280;19836;55.812;37.560;2024-01-27T02:21:52;99525.16;;;-0.14;68.40
33496;BME280;19836;55.812;37.560;2024-01-27T02:24:18;99535.53;;;-0.32;68.29
33496;BME280;19836;55.812;37.560;2024-01-27T02:26:45;99532.00;;;-0.37;68.05
33496;BME280;19836;55.812;37.560;2024-01-27T02:29:11;99536.41;;;-0.34;68.45
33496;BME280;19836;55.812;37.560;2024-01-27T02:31:37;99540.75;;;-0.39;68.06
33496;BME280;19836;55.812;37.560;2024-01-27T02:34:03;99545.94;;;-0.45;68.28
33496;BME280;19836;55.812;37.560;2024-01-27T02:36:29;99553.78;;;-0.50;68.23
33496;BME280;19836;55.812;37.560;2024-01-27T02:38:55;99552.00;;;-0.52;68.70
33496;BME280;19836;55.812;37.560;2024-01-27T02:41:21;99552.91;;;-0.50;68.15
33496;BME280;19836;55.812;37.560;2024-01-27T02:43:47;99552.00;;;-0.51;68.43
33496;BME280;19836;55.812;37.560;2024-01-27T02:46:14;99551.94;;;-0.58;68.05
33496;BME280;19836;55.812;37.560;2024-01-27T02:48:41;99555.53;;;-0.49;68.34
33496;BME280;19836;55.812;37.560;2024-01-27T02:51:10;99546.94;;;-0.30;68.80
33496;BME280;19836;55.812;37.560;2024-01-27T02:53:36;99550.50;;;-0.28;68.42
33496;BME280;19836;55.812;37.560;2024-01-27T02:56:02;99554.94;;;-0.22;67.96
33496;BME280;19836;55.812;37.560;2024-01-27T02:58:31;99550.66;;;-0.13;68.00
33496;BME280;19836;55.812;37.560;2024-01-27T03:00:57;99551.53;;;-0.09;67.82
33496;BME280;19836;55.812;37.560;2024-01-27T03:03:23;99557.56;;;-0.25;67.69
33496;BME280;19836;55.812;37.560;2024-01-27T03:05:49;99549.41;;;-0.46;67.77
33496;BME280;19836;55.812;37.560;2024-01-27T03:08:15;99555.34;;;-0.68;67.49
33496;BME280;19836;55.812;37.560;2024-01-27T03:10:41;99550.03;;;-0.73;68.04
33496;BME280;19836;55.812;37.560;2024-01-27T03:13:07;99552.72;;;-0.64;68.06
33496;BME280;19836;55.812;37.560;2024-01-27T03:15:39;99552.81;;;-0.59;68.14
33496;BME280;19836;55.812;37.560;2024-01-27T03:18:09;99557.25;;;-0.52;68.56
33496;BME280;19836;55.812;37.560;2024-01-27T03:32:15;99563.66;;;-0.26;67.72
33496;BME280;19836;55.812;37.560;2024-01-27T03:34:44;99563.75;;;-0.20;67.92
33496;BME280;19836;55.812;37.560;2024-01-27T03:37:12;99577.75;;;-0.20;67.99
33496;BME280;19836;55.812;37.560;2024-01-27T03:39:41;99576.06;;;-0.13;67.98
33496;BME280;19836;55.812;37.560;2024-01-27T03:42:08;99581.16;;;-0.31;67.68
33496;BME280;19836;55.812;37.560;2024-01-27T03:44:34;99571.47;;;-0.37;67.86
33496;BME280;19836;55.812;37.560;2024-01-27T03:47:00;99573.97;;;-0.47;67.74
33496;BME280;19836;55.812;37.560;2024-01-27T03:49:26;99573.94;;;-0.49;67.70
33496;BME280;19836;55.812;37.560;2024-01-27T03:51:52;99574.81;;;-0.50;68.18
33496;BME280;19836;55.812;37.560;2024-01-27T03:54:18;99577.34;;;-0.59;67.51
33496;BME280;19836;55.812;37.560;2024-01-27T03:56:44;99579.94;;;-0.63;67.75
33496;BME280;19836;55.812;37.560;2024-01-27T03:59:09;99585.16;;;-0.65;68.24
33496;BME280;19836;55.812;37.560;2024-01-27T04:01:37;99595.81;;;-0.56;68.43
33496;BME280;19836;55.812;37.560;2024-01-27T04:04:03;99594.06;;;-0.57;68.16
33496;BME280;19836;55.812;37.560;2024-01-27T04:06:29;99605.25;;;-0.74;68.09
33496;BME280;19836;55.812;37.560;2024-01-27T04:08:55;99610.25;;;-0.92;67.71
33496;BME280;19836;55.812;37.560;2024-01-27T04:11:22;99613.66;;;-1.01;68.20
33496;BME280;19836;55.812;37.560;2024-01-27T04:13:49;99608.25;;;-1.11;68.47
33496;BME280;19836;55.812;37.560;2024-01-27T04:16:16;99612.44;;;-1.24;68.43
33496;BME280;19836;55.812;37.560;2024-01-27T04:18:42;99628.25;;;-1.22;68.69
33496;BME280;19836;55.812;37.560;2024-01-27T04:21:08;99625.59;;;-1.25;68.68
33496;BME280;19836;55.812;37.560;2024-01-27T04:23:34;99634.16;;;-1.37;68.40
33496;BME280;19836;55.812;37.560;2024-01-27T04:26:00;99625.22;;;-1.49;68.74
33496;BME280;19836;55.812;37.560;2024-01-27T04:31:56;99642.50;;;-1.63;68.63
33496;BME280;19836;55.812;37.560;2024-01-27T04:34:22;99637.16;;;-1.69;68.86
33496;BME280;19836;55.812;37.560;2024-01-27T04:36:48;99645.91;;;-1.70;69.07
33496;BME280;19836;55.812;37.560;2024-01-27T04:39:15;99646.72;;;-1.71;69.10
33496;BME280;19836;55.812;37.560;2024-01-27T04:45:00;99651.31;;;-1.60;68.97
33496;BME280;19836;55.812;37.560;2024-01-27T04:47:26;99647.69;;;-1.66;68.94
33496;BME280;19836;55.812;37.560;2024-01-27T04:49:52;99651.19;;;-1.67;69.06
33496;BME280;19836;55.812;37.560;2024-01-27T04:52:18;99647.69;;;-1.67;69.21
33496;BME280;19836;55.812;37.560;2024-01-27T04:54:44;99655.44;;;-1.74;69.23
33496;BME280;19836;55.812;37.560;2024-01-27T05:04:45;99656.28;;;-1.76;69.26
33496;BME280;19836;55.812;37.560;2024-01-27T05:07:11;99650.06;;;-1.81;69.08
33496;BME280;19836;55.812;37.560;2024-01-27T05:09:38;99656.97;;;-1.86;69.47
33496;BME280;19836;55.812;37.560;2024-01-27T05:12:04;99656.97;;;-1.86;69.29
33496;BME280;19836;55.812;37.560;2024-01-27T05:14:31;99657.94;;;-1.83;69.49
33496;BME280;19836;55.812;37.560;2024-01-27T05:16:57;99670.78;;;-1.96;69.26
33496;BME280;19836;55.812;37.560;2024-01-27T05:19:23;99680.31;;;-2.01;69.49
33496;BME280;19836;55.812;37.560;2024-01-27T05:21:49;99671.44;;;-2.09;69.10
33496;BME280;19836;55.812;37.560;2024-01-27T05:24:15;99668.81;;;-2.09;69.62
33496;BME280;19836;55.812;37.560;2024-01-27T05:26:42;99667.88;;;-2.11;69.18
33496;BME280;19836;55.812;37.560;2024-01-27T05:29:08;99666.19;;;-2.09;69.34
33496;BME280;19836;55.812;37.560;2024-01-27T05:31:34;99675.03;;;-2.04;69.53
33496;BME280;19836;55.812;37.560;2024-01-27T05:34:01;99669.81;;;-2.01;69.43
33496;BME280;19836;55.812;37.560;2024-01-27T05:36:27;99683.09;;;-1.94;69.46
33496;BME280;19836;55.812;37.560;2024-01-27T05:38:54;99689.22;;;-1.93;69.55
33496;BME280;19836;55.812;37.560;2024-01-27T05:41:19;99689.19;;;-1.95;69.78
33496;BME280;19836;55.812;37.560;2024-01-27T05:43:45;99687.47;;;-1.94;69.49
33496;BME280;19836;55.812;37.560;2024-01-27T05:46:11;99689.31;;;-1.90;69.48
33496;BME280;19836;55.812;37.560;2024-01-27T05:48:37;99695.41;;;-1.90;69.47
33496;BME280;19836;55.812;37.560;2024-01-27T05:51:03;99706.72;;;-1.95;69.05
33496;BME280;19836;55.812;37.560;2024-01-27T05:53:35;99708.47;;;-1.94;69.18
33496;BME280;19836;55.812;37.560;2024-01-27T05:56:01;99695.38;;;-1.91;69.66
33496;BME280;19836;55.812;37.560;2024-01-27T05:58:27;99705.94;;;-1.88;69.33
33496;BME280;19836;55.812;37.560;2024-01-27T06:00:54;99704.25;;;-1.85;69.30
33496;BME280;19836;55.812;37.560;2024-01-27T06:03:20;99713.19;;;-1.75;69.12
33496;BME280;19836;55.812;37.560;2024-01-27T06:05:46;99715.94;;;-1.69;69.14
33496;BME280;19836;55.812;37.560;2024-01-27T06:08:12;99714.22;;;-1.66;69.03
33496;BME280;19836;55.812;37.560;2024-01-27T06:10:40;99723.03;;;-1.62;69.24
33496;BME280;19836;55.812;37.560;2024-01-27T06:13:06;99722.13;;;-1.66;69.21
33496;BME280;19836;55.812;37.560;2024-01-27T06:15:33;99723.00;;;-1.65;68.89
33496;BME280;19836;55.812;37.560;2024-01-27T06:18:02;99713.44;;;-1.62;69.60
33496;BME280;19836;55.812;37.560;2024-01-27T06:20:28;99731.84;;;-1.59;69.33
33496;BME280;19836;55.812;37.560;2024-01-27T06:30:53;99746.41;;;-1.77;68.85
33496;BME280;19836;55.812;37.560;2024-01-27T06:33:40;99739.34;;;-1.80;68.60
33496;BME280;19836;55.812;37.560;2024-01-27T06:36:11;99742.09;;;-1.75;68.89
33496;BME280;19836;55.812;37.560;2024-01-27T06:38:40;99730.78;;;-1.70;68.82
33496;BME280;19836;55.812;37.560;2024-01-27T06:41:06;99742.66;;;-1.42;68.95
33496;BME280;19836;55.812;37.560;2024-01-27T06:43:32;99739.66;;;-1.11;69.17
33496;BME280;19836;55.812;37.560;2024-01-27T06:45:58;99745.09;;;-1.01;69.04
33496;BME280;19836;55.812;37.560;2024-01-27T06:48:29;99743.44;;;-0.94;68.91
33496;BME280;19836;55.812;37.560;2024-01-27T06:50:55;99745.50;;;-0.75;69.47
33496;BME280;19836;55.812;37.560;2024-01-27T06:53:21;99741.06;;;-0.76;69.07
33496;BME280;19836;55.812;37.560;2024-01-27T06:55:47;99741.91;;;-0.80;68.77
33496;BME280;19836;55.812;37.560;2024-01-27T06:58:13;99747.06;;;-0.88;68.82
33496;BME280;19836;55.812;37.560;2024-01-27T07:00:39;99750.88;;;-0.66;69.38
33496;BME280;19836;55.812;37.560;2024-01-27T07:03:20;99749.25;;;-0.57;68.92
33496;BME280;19836;55.812;37.560;2024-01-27T07:05:46;99742.22;;;-0.59;68.93
33496;BME280;19836;55.812;37.560;2024-01-27T07:08:12;99753.50;;;-0.68;68.95
33496;BME280;19836;55.812;37.560;2024-01-27T07:10:50;99760.47;;;-0.70;69.21
33496;BME280;19836;55.812;37.560;2024-01-27T07:13:16;99766.47;;;-0.78;68.73
33496;BME280;19836;55.812;37.560;2024-01-27T07:15:42;99765.91;;;-0.56;69.13
33496;BME280;19836;55.812;37.560;2024-01-27T07:18:08;99767.81;;;-0.47;69.21
33496;BME280;19836;55.812;37.560;2024-01-27T07:20:34;99766.84;;;-0.54;69.14
33496;BME280;19836;55.812;37.560;2024-01-27T07:23:03;99768.44;;;-0.64;68.71
33496;BME280;19836;55.812;37.560;2024-01-27T07:25:48;99768.75;;;-0.41;69.07
33496;BME280;19836;55.812;37.560;2024-01-27T07:28:14;99767.25;;;-0.21;68.86
33496;BME280;19836;55.812;37.560;2024-01-27T07:30:41;99776.94;;;-0.22;68.76
33496;BME280;19836;55.812;37.560;2024-01-27T07:33:07;99773.56;;;-0.12;68.40
33496;BME280;19836;55.812;37.560;2024-01-27T07:35:33;99777.97;;;-0.09;68.26
33496;BME280;19836;55.812;37.560;2024-01-27T07:38:04;99790.97;;;-0.21;67.72
33496;BME280;19836;55.812;37.560;2024-01-27T07:40:31;99786.53;;;-0.25;68.12
33496;BME280;19836;55.812;37.560;2024-01-27T07:42:57;99784.84;;;-0.20;68.22
33496;BME280;19836;55.812;37.560;2024-01-27T07:45:23;99798.84;;;-0.24;67.94
33496;BME280;19836;55.812;37.560;2024-01-27T07:47:49;99791.16;;;-0.06;68.13
33496;BME280;19836;55.812;37.560;2024-01-27T07:50:15;99797.59;;;0.20;67.79
33496;BME280;19836;55.812;37.560;2024-01-27T07:52:41;99803.63;;;0.07;67.45
33496;BME280;19836;55.812;37.560;2024-01-27T07:55:08;99802.63;;;-0.03;67.35
33496;BME280;19836;55.812;37.560;2024-01-27T07:57:34;99808.00;;;0.08;67.33
33496;BME280;19836;55.812;37.560;2024-01-27T08:00:00;99813.34;;;0.14;67.21
33496;BME280;19836;55.812;37.560;2024-01-27T08:02:30;99806.19;;;0.04;66.96
33496;BME280;19836;55.812;37.560;2024-01-27T08:04:56;99813.41;;;0.17;66.77
33496;BME280;19836;55.812;37.560;2024-01-27T08:07:21;99815.03;;;0.06;66.95
33496;BME280;19836;55.812;37.560;2024-01-27T08:09:47;99815.69;;;-0.09;66.77
33496;BME280;19836;55.812;37.560;2024-01-27T08:12:13;99826.19;;;-0.13;66.59
33496;BME280;19836;55.812;37.560;2024-01-27T08:14:40;99815.59;;;-0.17;67.05
33496;BME280;19836;55.812;37.560;2024-01-27T08:17:06;99825.31;;;-0.12;67.05
33496;BME280;19836;55.812;37.560;2024-01-27T08:19:32;99811.44;;;0.01;66.61
33496;BME280;19836;55.812;37.560;2024-01-27T08:21:59;99819.66;;;0.26;66.39
33496;BME280;19836;55.812;37.560;2024-01-27T08:24:25;99820.44;;;0.19;66.29
33496;BME280;19836;55.812;37.560;2024-01-27T08:26:51;99824.63;;;0.04;65.86
33496;BME280;19836;55.812;37.560;2024-01-27T08:29:17;99823.94;;;0.20;66.26
33496;BME280;19836;55.812;37.560;2024-01-27T08:31:43;99831.78;;;0.14;65.65
33496;BME280;19836;55.812;37.560;2024-01-27T08:34:09;99831.56;;;-0.04;65.85
33496;BME280;19836;55.812;37.560;2024-01-27T08:37:19;99837.16;;;0.21;66.21
33496;BME280;19836;55.812;37.560;2024-01-27T08:39:52;99838.91;;;0.22;66.05
33496;BME280;19836;55.812;37.560;2024-01-27T08:42:19;99844.81;;;0.02;65.29
33496;BME280;19836;55.812;37.560;2024-01-27T08:44:48;99853.59;;;0.04;65.70
33496;BME280;19836;55.812;37.560;2024-01-27T08:47:44;99839.56;;;0.05;65.51
33496;BME280;19836;55.812;37.560;2024-01-27T08:50:10;99846.50;;;-0.03;65.50
33496;BME280;19836;55.812;37.560;2024-01-27T08:52:36;99851.63;;;-0.12;65.47
33496;BME280;19836;55.812;37.560;2024-01-27T08:58:13;99835.13;;;-0.01;65.61
33496;BME280;19836;55.812;37.560;2024-01-27T09:00:39;99846.69;;;0.12;65.33
33496;BME280;19836;55.812;37.560;2024-01-27T09:03:05;99844.94;;;0.11;65.67
33496;BME280;19836;55.812;37.560;2024-01-27T09:05:33;99839.00;;;0.28;65.47
33496;BME280;19836;55.812;37.560;2024-01-27T09:07:59;99839.13;;;0.39;65.20
33496;BME280;19836;55.812;37.560;2024-01-27T09:10:25;99845.25;;;0.38;64.85
33496;BME280;19836;55.812;37.560;2024-01-27T09:13:11;99838.19;;;0.34;64.91
33496;BME280;19836;55.812;37.560;2024-01-27T09:16:23;99843.38;;;0.28;64.94
33496;BME280;19836;55.812;37.560;2024-01-27T09:18:49;99847.03;;;0.39;65.30
33496;BME280;19836;55.812;37.560;2024-01-27T09:21:16;99840.81;;;0.34;65.03
33496;BME280;19836;55.812;37.560;2024-01-27T09:23:46;99844.81;;;0.02;64.59
33496;BME280;19836;55.812;37.560;2024-01-27T09:26:14;99851.00;;;0.05;64.77
33496;BME280;19836;55.812;37.560;2024-01-27T09:28:40;99849.31;;;0.10;65.09
33496;BME280;19836;55.812;37.560;2024-01-27T09:38:15;99847.63;;;0.15;65.17
33496;BME280;19836;55.812;37.560;2024-01-27T09:40:52;99848.28;;;-0.01;64.79
33496;BME280;19836;55.812;37.560;2024-01-27T09:43:21;99856.16;;;-0.02;65.32
33496;BME280;19836;55.812;37.560;2024-01-27T09:45:48;99854.53;;;0.07;65.26
33496;BME280;19836;55.812;37.560;2024-01-27T09:48:17;99856.50;;;0.25;65.32
33496;BME280;19836;55.812;37.560;2024-01-27T09:50:45;99859.38;;;0.43;65.36
33496;BME280;19836;55.812;37.560;2024-01-27T09:54:14;99859.59;;;0.61;65.06
33496;BME280;19836;55.812;37.560;2024-01-27T09:58:04;99864.63;;;0.43;64.36
33496;BME280;19836;55.812;37.560;2024-01-27T10:04:22;99867.31;;;0.44;64.74
33496;BME280;19836;55.812;37.560;2024-01-27T10:06:51;99884.84;;;0.41;64.29
33496;BME280;19836;55.812;37.560;2024-01-27T10:09:25;99884.84;;;0.44;64.46
33496;BME280;19836;55.812;37.560;2024-01-27T10:12:02;99883.25;;;0.56;64.34
33496;BME280;19836;55.812;37.560;2024-01-27T10:18:30;99885.03;;;0.59;63.93
33496;BME280;19836;55.812;37.560;2024-01-27T10:21:31;99885.94;;;0.61;64.89
33496;BME280;19836;55.812;37.560;2024-01-27T10:24:34;99881.41;;;0.49;64.59
33496;BME280;19836;55.812;37.560;2024-01-27T10:35:02;99889.34;;;0.51;64.58
33496;BME280;19836;55.812;37.560;2024-01-27T10:37:44;99898.00;;;0.41;64.52
33496;BME280;19836;55.812;37.560;2024-01-27T10:40:56;99902.34;;;0.36;64.51
33496;BME280;19836;55.812;37.560;2024-01-27T10:43:51;99911.09;;;0.33;64.49
33496;BME280;19836;55.812;37.560;2024-01-27T10:46:22;99908.50;;;0.38;65.12
33496;BME280;19836;55.812;37.560;2024-01-27T10:48:52;99905.97;;;0.45;64.97
33496;BME280;19836;55.812;37.560;2024-01-27T10:51:26;99914.78;;;0.49;65.10
33496;BME280;19836;55.812;37.560;2024-01-27T10:54:01;99915.66;;;0.48;64.92
33496;BME280;19836;55.812;37.560;2024-01-27T10:56:34;99921.78;;;0.45;65.02
33496;BME280;19836;55.812;37.560;2024-01-27T10:59:30;99935.00;;;0.50;65.56
33496;BME280;19836;55.812;37.560;2024-01-27T11:01:58;99927.06;;;0.47;64.82
33496;BME280;19836;55.812;37.560;2024-01-27T11:04:28;99927.88;;;0.43;64.83
33496;BME280;19836;55.812;37.560;2024-01-27T11:06:55;99924.38;;;0.44;65.44
33496;BME280;19836;55.812;37.560;2024-01-27T11:09:24;99927.25;;;0.62;65.00
33496;BME280;19836;55.812;37.560;2024-01-27T11:11:54;99924.50;;;0.53;64.92
33496;BME280;19836;55.812;37.560;2024-01-27T11:14:21;99936.81;;;0.54;65.18
33496;BME280;19836;55.812;37.560;2024-01-27T11:16:47;99931.53;;;0.54;65.25
33496;BME280;19836;55.812;37.560;2024-01-27T11:19:17;99931.59;;;0.57;64.72
33496;BME280;19836;55.812;37.560;2024-01-27T11:21:47;99936.88;;;0.60;64.73
33496;BME280;19836;55.812;37.560;2024-01-27T11:24:15;99950.00;;;0.54;64.61
33496;BME280;19836;55.812;37.560;2024-01-27T11:26:41;99948.19;;;0.51;64.51
33496;BME280;19836;55.812;37.560;2024-01-27T11:29:12;99951.06;;;0.68;64.95
33496;BME280;19836;55.812;37.560;2024-01-27T11:31:46;99952.03;;;0.77;64.84
33496;BME280;19836;55.812;37.560;2024-01-27T11:34:25;99951.28;;;0.87;65.12
33496;BME280;19836;55.812;37.560;2024-01-27T11:36:57;99953.84;;;0.81;64.74
33496;BME280;19836;55.812;37.560;2024-01-27T11:39:27;99952.81;;;0.69;64.49
33496;BME280;19836;55.812;37.560;2024-01-27T11:42:28;99951.06;;;0.68;64.23
33496;BME280;19836;55.812;37.560;2024-01-27T11:45:04;99961.72;;;0.77;64.35
33496;BME280;19836;55.812;37.560;2024-01-27T11:47:37;99966.91;;;0.71;64.67
33496;BME280;19836;55.812;37.560;2024-01-27T11:50:04;99960.78;;;0.72;64.54
33496;BME280;19836;55.812;37.560;2024-01-27T11:52:30;99973.91;;;0.69;64.46
33496;BME280;19836;55.812;37.560;2024-01-27T11:55:03;99972.06;;;0.62;64.47
33496;BME280;19836;55.812;37.560;2024-01-27T11:57:35;99984.44;;;0.66;64.25
33496;BME280;19836;55.812;37.560;2024-01-27T12:00:07;99978.13;;;0.56;64.45
33496;BME280;19836;55.812;37.560;2024-01-27T12:02:39;99974.69;;;0.60;64.46
33496;BME280;19836;55.812;37.560;2024-01-27T12:05:52;99977.28;;;0.56;64.20
33496;BME280;19836;55.812;37.560;2024-01-27T12:08:26;99984.34;;;0.58;64.21
33496;BME280;19836;55.812;37.560;2024-01-27T12:10:53;99986.00;;;0.52;64.06
33496;BME280;19836;55.812;37.560;2024-01-27T12:17:01;100008.56;;;0.35;64.00
33496;BME280;19836;55.812;37.560;2024-01-27T12:19:27;100012.06;;;0.32;64.15
33496;BME280;19836;55.812;37.560;2024-01-27T12:21:53;100017.41;;;0.37;64.27
33496;BME280;19836;55.812;37.560;2024-01-27T12:24:19;100014.94;;;0.49;64.28
33496;BME280;19836;55.812;37.560;2024-01-27T12:26:46;100017.63;;;0.52;64.35
33496;BME280;19836;55.812;37.560;2024-01-27T12:29:12;100025.41;;;0.43;64.21
33496;BME280;19836;55.812;37.560;2024-01-27T12:31:38;100030.56;;;0.35;63.91
33496;BME280;19836;55.812;37.560;2024-01-27T12:34:04;100040.16;;;0.32;64.25
33496;BME280;19836;55.812;37.560;2024-01-27T12:36:30;100036.72;;;0.37;64.32
33496;BME280;19836;55.812;37.560;2024-01-27T12:38:58;100045.69;;;0.50;64.40
33496;BME280;19836;55.812;37.560;2024-01-27T12:41:25;100050.94;;;0.47;64.49
33496;BME280;19836;55.812;37.560;2024-01-27T12:43:55;100047.38;;;0.45;64.37
33496;BME280;19836;55.812;37.560;2024-01-27T12:46:21;100051.72;;;0.41;64.16
33496;BME280;19836;55.812;37.560;2024-01-27T12:48:48;100059.41;;;0.28;64.24
33496;BME280;19836;55.812;37.560;2024-01-27T12:51:15;100062.13;;;0.32;64.25
33496;BME280;19836;55.812;37.560;2024-01-27T12:53:42;100070.25;;;0.46;64.33
33496;BME280;19836;55.812;37.560;2024-01-27T12:56:10;100073.94;;;0.60;64.60
33496;BME280;19836;55.812;37.560;2024-01-27T12:58:38;100073.00;;;0.55;63.87
33496;BME280;19836;55.812;37.560;2024-01-27T13:01:05;100080.69;;;0.40;64.39
33496;BME280;19836;55.812;37.560;2024-01-27T13:03:32;100082.25;;;0.26;63.90
33496;BME280;19836;55.812;37.560;2024-01-27T13:05:58;100087.53;;;0.29;64.22
33496;BME280;19836;55.812;37.560;2024-01-27T13:08:25;100093.66;;;0.26;64.34
33496;BME280;19836;55.812;37.560;2024-01-27T13:10:51;100097.09;;;0.21;64.37
33496;BME280;19836;55.812;37.560;2024-01-27T13:13:17;100088.47;;;0.31;64.41
33496;BME280;19836;55.812;37.560;2024-01-27T13:15:43;100089.41;;;0.37;64.55
33496;BME280;19836;55.812;37.560;2024-01-27T13:18:10;100093.03;;;0.44;64.42
33496;BME280;19836;55.812;37.560;2024-01-27T13:20:37;100104.50;;;0.44;64.17
33496;BME280;19836;55.812;37.560;2024-01-27T13:23:04;100103.56;;;0.41;64.65
33496;BME280;19836;55.812;37.560;2024-01-27T13:25:30;100105.09;;;0.30;64.33
33496;BME280;19836;55.812;37.560;2024-01-27T13:27:56;100111.22;;;0.27;64.75
33496;BME280;19836;55.812;37.560;2024-01-27T13:30:27;100119.13;;;0.26;64.81
33496;BME280;19836;55.812;37.560;2024-01-27T13:36:34;100111.66;;;0.01;64.98
33496;BME280;19836;55.812;37.560;2024-01-27T13:39:00;100121.31;;;0.00;64.93
33496;BME280;19836;55.812;37.560;2024-01-27T13:41:26;100122.31;;;0.07;65.24
33496;BME280;19836;55.812;37.560;2024-01-27T13:43:52;100127.72;;;0.16;65.22
33496;BME280;19836;55.812;37.560;2024-01-27T13:46:19;100135.50;;;0.10;65.02
33496;BME280;19836;55.812;37.560;2024-01-27T13:48:50;100137.34;;;0.14;65.05
33496;BME280;19836;55.812;37.560;2024-01-27T13:51:17;100135.63;;;0.16;65.01
33496;BME280;19836;55.812;37.560;2024-01-27T13:53:43;100139.88;;;0.08;64.93
33496;BME280;19836;55.812;37.560;2024-01-27T13:56:11;100143.28;;;0.01;65.08
33496;BME280;19836;55.812;37.560;2024-01-27T13:59:12;100140.53;;;-0.04;65.68
33496;BME280;19836;55.812;37.560;2024-01-27T14:01:40;100141.50;;;0.00;65.67
33496;BME280;19836;55.812;37.560;2024-01-27T14:04:07;100154.03;;;0.14;65.47
33496;BME280;19836;55.812;37.560;2024-01-27T15:56:45;100210.09;;;0.06;65.96
33496;BME280;19836;55.812;37.560;2024-01-27T15:59:39;100217.13;;;0.07;66.27
33496;BME280;19836;55.812;37.560;2024-01-27T16:02:12;100228.41;;;0.00;66.60
33496;BME280;19836;55.812;37.560;2024-01-27T16:05:32;100225.72;;;-0.03;66.92
33496;BME280;19836;55.812;37.560;2024-01-27T16:07:59;100238.00;;;-0.02;66.56
33496;BME280;19836;55.812;37.560;2024-01-27T16:10:30;100246.63;;;-0.11;66.56
33496;BME280;19836;55.812;37.560;2024-01-27T16:12:57;100244.94;;;-0.07;66.94